KOLY/OLY METAR and TAF weather

Enter ICAO airport designator
Station Type Date Time Source
KOLY METAR 2022/11/11 08:10 UTC NOAA

KOLY 110810Z AUTO 00000KT 10SM CLR 09/08 A2985 RMK AO2 T00910081


Station Type Date Time Source
KOLY Decoded METAR 2022/11/11 08:10 UTC NOAA

Olney-Noble, Olney-Noble Airport, IL, United States (KOLY) 38-43-19N 088-10-35W
Nov 11, 2022 - 03:10 AM EST / 2022.11.11 0810 UTC
Wind: Calm:0
Visibility: 10 mile(s):0
Sky conditions: clear
Temperature: 48.4 F (9.1 C)
Dew Point: 46.6 F (8.1 C)
Relative Humidity: 93%
Pressure (altimeter): 29.85 in. Hg (1010 hPa)
ob: KOLY 110810Z AUTO 00000KT 10SM CLR 09/08 A2985 RMK AO2 T00910081
cycle: 8

Station Type Date Time Source
KOLY TAF UTC NOAA

Error!

Example: see airport list